Clifton Forge, Virginia
Current Conditions -  °F | °C
As of 2:55 PM on Friday 24 Oct 2014 (Local Time) from KHSP Reporting Station
Clear Clear  
Wind Chill: 55°   Ceiling: Unl
Heat Index: 55°   Visibility: 10mi
Dew Point: 37°   Wind: 10mph
Humidity: 50%   Direction: 290°WNW
Pressure: 30.01"   Gusts: 16mph
Location:  37.82°N, 79.83°W
Report Text: KHSP 241855Z AUTO 29009G14KT 10SM CLR 13/03 A3001 RMK AO2 T01300029
Loading
Personal Weather Stations






























Interactive Weather Map
Tropical Storm Tracking
New forecast layout! Learn more

10-Day Weather Forecast

Advertisements
Track Severe Weather on mobile